Danubia — A8HZ9 — position and weather

sailwx.info

Track history (hours):
 
Tides and Currents Weather Stations Pressure Air Temp Water Temp Dewpoint Dewpoint Depression Visibility Wind Speed Wind Dir Waves Ship Positions

Danubia

Last reported at 2017-Nov-19 11:52 UTC. Time now 2017-Nov-19 12:22 UTC.
Position N 28°53' W 116°41'.

Length 229 m; draft 11.1 m.

Type: Tanker. MMSI: 636090950.

Date/timePositionNaut miles runAvg speedWind from/ knotsBaromVisibWave heightAir tempDewpointWater temp
2017-Nov-19 11:52N 28°53' W 116°41'1012.8
2017-Nov-19 11:04N 28°44' W 116°36'5612.1
2017-Nov-19 06:27N 27°53' W 116°11'611.4
2017-Nov-19 05:54N 27°47' W 116°08'611.8
2017-Nov-19 05:22N 27°42' W 116°04'412.3
2017-Nov-19 05:00N 27°39' W 116°00'3612.0
2017-Nov-19 02:02N 27°12' W 115°34'011.3
2017-Nov-19 02:00N 27°11' W 115°34'612.3
2017-Nov-19 01:30N 27°07' W 115°29'612.6
2017-Nov-19 01:00N 27°02' W 115°24'712.6
2017-Nov-19 00:25N 26°57' W 115°19'512.3
2017-Nov-18 23:59N 26°53' W 115°15'612.5
2017-Nov-18 23:30N 26°48' W 115°11'612.6
2017-Nov-18 23:00N 26°43' W 115°06'  
Track history (hours):
 
Tides and Currents Weather Stations Pressure Air Temp Water Temp Dewpoint Dewpoint Depression Visibility Wind Speed Wind Dir Waves Ship Positions

Danubia

Last reported at 2017-Nov-19 11:52 UTC. Time now 2017-Nov-19 12:22 UTC.
Position N 28°53' W 116°41'.

Length 229 m; draft 11.1 m.

Type: Tanker. MMSI: 636090950.

Date/timePositionNaut miles runAvg speedWind from/ knotsBaromVisibWave heightAir tempDewpointWater temp
2017-Nov-19 11:52N 28°53' W 116°41'1012.8
2017-Nov-19 11:04N 28°44' W 116°36'5612.1
2017-Nov-19 06:27N 27°53' W 116°11'611.4
2017-Nov-19 05:54N 27°47' W 116°08'611.8
2017-Nov-19 05:22N 27°42' W 116°04'412.3
2017-Nov-19 05:00N 27°39' W 116°00'3612.0
2017-Nov-19 02:02N 27°12' W 115°34'011.3
2017-Nov-19 02:00N 27°11' W 115°34'612.3
2017-Nov-19 01:30N 27°07' W 115°29'612.6
2017-Nov-19 01:00N 27°02' W 115°24'712.6
2017-Nov-19 00:25N 26°57' W 115°19'512.3
2017-Nov-18 23:59N 26°53' W 115°15'612.5
2017-Nov-18 23:30N 26°48' W 115°11'612.6
2017-Nov-18 23:00N 26°43' W 115°06'  

Dump ship's entire track history